Mirgab Vi — ZGAO4 — position and weather

sailwx.info

Track history (hours):
 
Tides and Currents Weather Stations Pressure Air Temp Water Temp Dewpoint Dewpoint Depression Visibility Wind Speed Wind Dir Waves Ship Positions

Mirgab Vi

Last reported at 2017-Feb-22 07:32 UTC. Time now 2017-Feb-24 08:05 UTC.
Position N 43°05' E 005°56'.

Length 49 m; draft 2.9 m.

Type: Pleasure craft. MMSI: 319394000.

Date/timePositionNaut miles runAvg speedWind from/ knotsBaromVisibWave heightAir tempDewpointWater temp
2017-Feb-22 07:32N 43°05' E 005°56'0 0.0
2017-Feb-21 15:07N 43°05' E 005°56'49 9.8
2017-Feb-21 10:09N 43°25' E 006°57'5 7.8
2017-Feb-21 09:33N 43°29' E 007°00'3 2.7
2017-Feb-21 08:34N 43°31' E 007°01'1 1.0
2017-Feb-21 07:33N 43°32' E 007°02'0 0.0
2017-Feb-21 06:33N 43°32' E 007°02'0 0.0
2017-Feb-21 05:33N 43°32' E 007°02'0 0.0
2017-Feb-21 04:33N 43°32' E 007°02'0 0.0
2017-Feb-21 03:33N 43°32' E 007°02'0 0.0
2017-Feb-21 02:34N 43°32' E 007°02'0 0.0
2017-Feb-21 01:33N 43°32' E 007°02'0 0.0
2017-Feb-21 00:33N 43°32' E 007°02'0 0.0
2017-Feb-20 23:33N 43°32' E 007°02'0 0.0
2017-Feb-20 22:33N 43°32' E 007°02'0 0.0
2017-Feb-20 21:33N 43°32' E 007°02'0 0.0
2017-Feb-20 20:33N 43°32' E 007°02'0 0.0
2017-Feb-20 19:33N 43°32' E 007°02'0 0.0
2017-Feb-20 18:34N 43°32' E 007°02'0 0.0
2017-Feb-20 17:33N 43°32' E 007°02'0 0.0
2017-Feb-20 16:33N 43°32' E 007°02'0 0.0
2017-Feb-20 15:33N 43°32' E 007°02'0 0.0
2017-Feb-20 14:30N 43°32' E 007°02'0 0.0
2017-Feb-20 13:27N 43°32' E 007°02'  
Track history (hours):
 
Tides and Currents Weather Stations Pressure Air Temp Water Temp Dewpoint Dewpoint Depression Visibility Wind Speed Wind Dir Waves Ship Positions

Mirgab Vi

Last reported at 2017-Feb-22 07:32 UTC. Time now 2017-Feb-24 08:05 UTC.
Position N 43°05' E 005°56'.

Length 49 m; draft 2.9 m.

Type: Pleasure craft. MMSI: 319394000.

Date/timePositionNaut miles runAvg speedWind from/ knotsBaromVisibWave heightAir tempDewpointWater temp
2017-Feb-22 07:32N 43°05' E 005°56'0 0.0
2017-Feb-21 15:07N 43°05' E 005°56'49 9.8
2017-Feb-21 10:09N 43°25' E 006°57'5 7.8
2017-Feb-21 09:33N 43°29' E 007°00'3 2.7
2017-Feb-21 08:34N 43°31' E 007°01'1 1.0
2017-Feb-21 07:33N 43°32' E 007°02'0 0.0
2017-Feb-21 06:33N 43°32' E 007°02'0 0.0
2017-Feb-21 05:33N 43°32' E 007°02'0 0.0
2017-Feb-21 04:33N 43°32' E 007°02'0 0.0
2017-Feb-21 03:33N 43°32' E 007°02'0 0.0
2017-Feb-21 02:34N 43°32' E 007°02'0 0.0
2017-Feb-21 01:33N 43°32' E 007°02'0 0.0
2017-Feb-21 00:33N 43°32' E 007°02'0 0.0
2017-Feb-20 23:33N 43°32' E 007°02'0 0.0
2017-Feb-20 22:33N 43°32' E 007°02'0 0.0
2017-Feb-20 21:33N 43°32' E 007°02'0 0.0
2017-Feb-20 20:33N 43°32' E 007°02'0 0.0
2017-Feb-20 19:33N 43°32' E 007°02'0 0.0
2017-Feb-20 18:34N 43°32' E 007°02'0 0.0
2017-Feb-20 17:33N 43°32' E 007°02'0 0.0
2017-Feb-20 16:33N 43°32' E 007°02'0 0.0
2017-Feb-20 15:33N 43°32' E 007°02'0 0.0
2017-Feb-20 14:30N 43°32' E 007°02'0 0.0
2017-Feb-20 13:27N 43°32' E 007°02'  

Dump ship's entire track history